Terminal Aerodrome Forecast
Issued by NWS

Current Version | Previous Version | Graphics & Text | Print | Product List | Glossary On
Versions: 1 2 3 4 5 6 7 8 9 10 11 12 13
000
FTUS41 KPBZ 251700
TAFMGW
TAF
KMGW 251733Z 2518/2618 26010G18KT P6SM BKN030 OVC040
     FM252300 24009KT P6SM BKN040
     FM260600 22003KT P6SM SCT025
     FM261200 21003KT P6SM FEW250=

USA.gov is the U.S. government's official web portal to all federal, state and local government web resources and services.